Time;durP1;ratioP1;P1;durP2;ratioP2;P2;SDS_P1;SDS_P2;PMS_P1;PMS_P2;Temp;Humidity;BMP_temperature;BMP_pressure;BME280_temperature;BME280_humidity;BME280_pressure;Samples;Min_cycle;Max_cycle;Signal;HPM_P1;HPM_P2
2020/12/21 00:01:40;;;;;;;4.97;4.47;;;;;;;7.58;93.79;97431.03;5012909;28;20190;-77
2020/12/21 00:04:07;;;;;;;5.90;4.07;;;;;;;7.72;93.11;97437.16;5013754;28;20176;-75
2020/12/21 00:06:33;;;;;;;10.60;3.50;;;;;;;7.66;93.32;97432.72;5015161;28;20200;-75
2020/12/21 00:09:00;;;;;;;4.00;3.63;;;;;;;7.67;93.19;97432.53;5028051;28;20290;-75
2020/12/21 00:11:52;;;;;;;3.10;2.90;;;;;;;7.67;93.05;97440.34;5012817;28;20211;-75
2020/12/21 00:14:19;;;;;;;3.87;3.20;;;;;;;7.73;93.30;97433.56;5015114;28;20330;-77
2020/12/21 00:16:49;;;;;;;2.90;2.70;;;;;;;7.83;92.10;97441.84;5007676;28;20692;-76
2020/12/21 00:19:21;;;;;;;3.10;2.80;;;;;;;7.73;92.94;97442.19;4982673;28;20167;-78
2020/12/21 00:21:51;;;;;;;3.10;2.80;;;;;;;7.80;92.34;97444.84;5015207;28;20202;-79
2020/12/21 00:24:17;;;;;;;3.00;2.40;;;;;;;7.93;91.21;97434.47;5013276;28;20203;-79
2020/12/21 00:26:47;;;;;;;2.90;2.70;;;;;;;7.85;92.09;97432.84;5011435;28;20179;-78
2020/12/21 00:29:13;;;;;;;2.50;2.30;;;;;;;7.76;92.65;97439.19;4999998;28;20221;-79
2020/12/21 00:31:38;;;;;;;2.77;2.57;;;;;;;7.97;91.81;97437.50;5011838;28;20211;-78
2020/12/21 00:34:05;;;;;;;2.70;2.50;;;;;;;8.03;91.28;97436.69;5012927;28;20209;-78
2020/12/21 00:36:34;;;;;;;2.53;2.33;;;;;;;7.83;92.10;97440.03;5011473;28;20281;-78
2020/12/21 00:39:00;;;;;;;2.80;2.43;;;;;;;8.01;90.96;97436.13;5012783;28;20192;-79
2020/12/21 00:41:26;;;;;;;2.37;2.17;;;;;;;7.96;91.61;97436.69;5011994;28;20235;-78
2020/12/21 00:43:51;;;;;;;2.27;2.13;;;;;;;7.97;91.57;97440.91;5013263;28;20195;-77
2020/12/21 00:46:19;;;;;;;2.33;2.23;;;;;;;7.89;91.54;97433.25;5012347;28;20223;-77
2020/12/21 00:48:45;;;;;;;2.03;1.93;;;;;;;7.81;91.92;97433.38;5011472;28;20707;-77
2020/12/21 00:51:12;;;;;;;2.47;2.27;;;;;;;7.83;91.54;97420.97;5012193;28;20306;-77
2020/12/21 00:53:38;;;;;;;1.93;1.83;;;;;;;7.75;92.37;97429.75;4995580;28;20322;-77
2020/12/21 00:56:04;;;;;;;3.10;2.17;;;;;;;7.70;91.92;97433.94;5012635;28;20273;-77
2020/12/21 00:58:31;;;;;;;3.07;2.10;;;;;;;7.61;92.84;97435.91;5011880;28;20179;-77
2020/12/21 01:00:57;;;;;;;2.20;2.07;;;;;;;7.52;93.66;97442.28;5012108;28;20184;-77
2020/12/21 01:03:23;;;;;;;1.97;1.87;;;;;;;7.52;93.83;97439.66;5011694;28;20194;-77
2020/12/21 01:05:48;;;;;;;2.30;2.10;;;;;;;7.63;93.64;97443.53;5011693;28;20195;-76
2020/12/21 01:08:13;;;;;;;2.93;2.20;;;;;;;7.68;93.36;97444.56;5012640;28;20331;-77
2020/12/21 01:10:39;;;;;;;2.47;2.27;;;;;;;7.76;92.56;97446.22;5011634;28;20542;-77
2020/12/21 01:13:04;;;;;;;2.43;2.10;;;;;;;7.83;91.58;97447.06;5012045;28;20196;-76
2020/12/21 01:15:30;;;;;;;2.40;2.20;;;;;;;7.73;92.29;97444.00;5011294;28;20190;-77
2020/12/21 01:17:55;;;;;;;1.83;1.73;;;;;;;7.79;92.05;97449.25;5011678;28;20179;-77
2020/12/21 01:20:21;;;;;;;2.50;2.00;;;;;;;7.80;91.88;97450.84;5015799;28;20175;-77
2020/12/21 01:22:46;;;;;;;2.07;1.97;;;;;;;7.68;92.81;97452.41;5020046;28;20528;-78
2020/12/21 01:25:12;;;;;;;2.20;2.07;;;;;;;7.61;92.69;97459.38;5011297;28;20191;-78
2020/12/21 01:27:37;;;;;;;2.40;2.20;;;;;;;7.80;91.67;97461.28;5013006;28;20183;-78
2020/12/21 01:30:04;;;;;;;2.40;2.20;;;;;;;7.74;92.05;97466.50;5011929;28;20662;-78
2020/12/21 01:32:29;;;;;;;2.57;2.23;;;;;;;7.74;92.25;97461.28;5011129;28;20191;-78
2020/12/21 01:34:55;;;;;;;2.60;2.20;;;;;;;7.75;92.74;97457.63;5011161;28;20543;-78
2020/12/21 01:37:20;;;;;;;2.60;2.20;;;;;;;7.80;91.80;97450.06;4992745;28;20544;-78
2020/12/21 01:39:48;;;;;;;2.30;2.10;;;;;;;7.64;92.52;97453.75;5010917;28;20188;-78
2020/12/21 01:42:20;;;;;;;2.57;2.37;;;;;;;7.55;92.94;97459.31;4996146;28;20381;-78
2020/12/21 01:44:49;;;;;;;3.13;2.67;;;;;;;7.47;93.03;97449.84;5010867;28;20642;-78
2020/12/21 01:47:19;;;;;;;2.97;2.77;;;;;;;7.49;92.40;97455.69;5011450;28;20187;-78
2020/12/21 01:49:45;;;;;;;3.40;3.10;;;;;;;7.38;92.63;97448.38;5009628;28;20781;-77
2020/12/21 01:52:14;;;;;;;3.23;2.90;;;;;;;7.29;93.33;97459.94;5011819;28;20211;-78
2020/12/21 01:54:40;;;;;;;3.13;2.83;;;;;;;7.19;93.80;97452.44;5010595;28;20257;-78
2020/12/21 01:57:05;;;;;;;3.13;2.83;;;;;;;7.33;93.00;97448.13;5011018;28;20218;-77
2020/12/21 01:59:31;;;;;;;5.33;3.03;;;;;;;7.15;93.75;97455.63;5002662;28;20183;-78
2020/12/21 02:01:56;;;;;;;3.87;2.90;;;;;;;7.08;94.25;97455.56;5011154;28;20270;-78
2020/12/21 02:04:22;;;;;;;3.07;2.87;;;;;;;7.10;93.96;97453.56;5011786;28;20191;-77
2020/12/21 02:06:47;;;;;;;4.00;3.07;;;;;;;7.01;94.42;97462.53;5010774;28;20187;-75
2020/12/21 02:09:13;;;;;;;6.50;3.40;;;;;;;6.94;94.88;97454.66;5011874;28;20571;-74
2020/12/21 02:11:40;;;;;;;5.77;3.23;;;;;;;6.84;95.33;97463.78;4999405;28;20699;-74
2020/12/21 02:14:06;;;;;;;3.70;3.00;;;;;;;6.77;95.75;97466.31;5007266;28;20198;-75
2020/12/21 02:16:32;;;;;;;3.17;2.97;;;;;;;6.72;96.00;97452.22;5010108;28;20183;-74
2020/12/21 02:18:57;;;;;;;4.17;3.40;;;;;;;6.71;95.88;97455.81;5026280;28;20265;-76
2020/12/21 02:21:23;;;;;;;4.50;3.53;;;;;;;6.58;96.28;97446.88;5010539;28;20282;-76
2020/12/21 02:23:48;;;;;;;6.37;3.90;;;;;;;6.51;96.64;97442.59;5011132;28;20536;-75
2020/12/21 02:26:14;;;;;;;7.43;4.53;;;;;;;6.49;96.18;97445.38;5010769;28;20636;-76
2020/12/21 02:28:39;;;;;;;5.33;4.53;;;;;;;6.54;95.83;97447.44;5010359;28;20257;-77
2020/12/21 02:31:05;;;;;;;4.83;4.33;;;;;;;6.51;95.72;97442.59;5011464;28;20644;-74
2020/12/21 02:33:31;;;;;;;5.23;4.63;;;;;;;6.48;95.85;97442.97;5010445;28;20211;-74
2020/12/21 02:35:57;;;;;;;5.20;4.70;;;;;;;6.42;96.50;97441.09;5010891;28;20194;-75
2020/12/21 02:38:22;;;;;;;5.03;4.53;;;;;;;6.44;96.33;97439.94;5011543;28;20180;-77
2020/12/21 02:40:48;;;;;;;5.87;5.10;;;;;;;6.39;96.45;97439.69;4997442;28;20309;-77
2020/12/21 02:43:14;;;;;;;5.63;4.30;;;;;;;6.33;96.93;97437.81;5001092;28;20194;-77
2020/12/21 02:45:40;;;;;;;4.90;4.37;;;;;;;6.24;97.35;97429.28;5010296;28;20207;-76
2020/12/21 02:48:05;;;;;;;5.23;4.30;;;;;;;6.31;96.86;97424.16;5010939;28;20230;-76
2020/12/21 02:50:31;;;;;;;4.60;4.20;;;;;;;6.34;97.19;97423.81;5011970;28;20190;-76
2020/12/21 02:52:57;;;;;;;5.00;4.60;;;;;;;6.31;97.39;97431.97;5012131;28;20718;-76
2020/12/21 02:55:23;;;;;;;5.67;4.50;;;;;;;6.30;97.23;97425.13;5014763;28;20188;-76
2020/12/21 02:57:48;;;;;;;4.43;4.03;;;;;;;6.18;98.03;97414.44;5006916;28;20648;-76
2020/12/21 03:00:14;;;;;;;4.27;3.90;;;;;;;6.24;97.64;97418.88;5013320;28;20191;-76
2020/12/21 03:02:40;;;;;;;5.13;4.00;;;;;;;6.24;97.54;97415.50;5004250;28;20217;-76
2020/12/21 03:05:05;;;;;;;4.97;4.43;;;;;;;6.39;96.46;97429.25;5014051;28;20591;-76
2020/12/21 03:07:31;;;;;;;5.83;4.10;;;;;;;6.21;97.42;97421.84;5013530;28;20691;-76
2020/12/21 03:09:56;;;;;;;3.83;3.53;;;;;;;6.15;98.05;97426.97;5013480;28;20191;-76
2020/12/21 03:12:22;;;;;;;4.10;3.70;;;;;;;6.35;97.18;97435.03;5014672;28;20207;-76
2020/12/21 03:14:47;;;;;;;4.00;3.70;;;;;;;6.36;96.45;97432.22;5013503;28;20191;-75
2020/12/21 03:17:12;;;;;;;4.63;4.23;;;;;;;6.31;96.68;97424.16;5014195;28;20644;-75
2020/12/21 03:19:38;;;;;;;4.53;3.93;;;;;;;6.43;96.17;97421.88;5014770;28;20266;-76
2020/12/21 03:22:03;;;;;;;4.33;3.93;;;;;;;6.46;95.94;97427.53;5014476;28;20557;-76
2020/12/21 03:24:29;;;;;;;5.30;4.20;;;;;;;6.27;96.30;97425.53;5013889;28;20598;-77
2020/12/21 03:26:54;;;;;;;5.53;4.63;;;;;;;6.23;96.58;97427.69;5013963;28;20198;-75
2020/12/21 03:29:20;;;;;;;4.20;3.80;;;;;;;6.15;96.92;97422.59;5013860;28;20565;-76
2020/12/21 03:31:45;;;;;;;5.60;4.13;;;;;;;6.05;97.68;97424.66;5013191;28;20422;-76
2020/12/21 03:34:16;;;;;;;5.07;4.40;;;;;;;5.95;97.97;97426.75;5014038;28;20259;-76
2020/12/21 03:36:42;;;;;;;4.77;4.37;;;;;;;5.93;97.69;97422.72;5002542;28;20195;-75
2020/12/21 03:39:08;;;;;;;6.00;4.80;;;;;;;6.07;97.03;97430.50;5014017;28;20196;-75
2020/12/21 03:41:35;;;;;;;5.50;4.63;;;;;;;5.93;98.00;97423.50;5009151;28;20286;-74
2020/12/21 03:44:00;;;;;;;4.83;4.33;;;;;;;5.95;97.63;97423.34;5014047;28;20644;-74
2020/12/21 03:46:26;;;;;;;6.37;5.07;;;;;;;5.98;97.43;97428.97;5013164;28;20180;-76
2020/12/21 03:48:52;;;;;;;6.20;5.33;;;;;;;5.91;97.51;97424.69;5013222;28;20199;-76
2020/12/21 03:51:17;;;;;;;7.60;5.93;;;;;;;5.86;97.48;97417.38;5014354;28;20184;-75
2020/12/21 03:53:42;;;;;;;7.50;5.60;;;;;;;5.75;97.99;97418.66;5013458;28;20198;-75
2020/12/21 03:56:10;;;;;;;7.03;6.00;;;;;;;5.71;98.27;97427.81;5012873;28;20198;-75
2020/12/21 03:58:35;;;;;;;7.27;6.17;;;;;;;5.72;98.30;97432.03;5013675;28;20210;-75
2020/12/21 04:01:00;;;;;;;6.43;5.73;;;;;;;5.57;98.76;97425.22;5013706;28;20747;-75
2020/12/21 04:03:30;;;;;;;6.77;5.73;;;;;;;5.57;98.74;97422.63;5012930;28;20198;-76
2020/12/21 04:05:55;;;;;;;6.87;6.17;;;;;;;5.59;98.58;97413.63;4998137;28;20233;-75
2020/12/21 04:08:22;;;;;;;7.10;5.90;;;;;;;5.51;98.83;97415.53;5013361;28;20191;-76
2020/12/21 04:10:48;;;;;;;6.63;5.50;;;;;;;5.49;98.69;97407.91;5020105;28;20183;-75
2020/12/21 04:13:15;;;;;;;8.43;5.93;;;;;;;5.46;98.80;97408.28;5012251;28;20209;-74
2020/12/21 04:15:41;;;;;;;7.27;6.27;;;;;;;5.34;98.64;97409.69;5012402;28;20189;-76
2020/12/21 04:18:06;;;;;;;7.90;6.47;;;;;;;5.30;99.11;97411.81;5012051;28;20612;-74
2020/12/21 04:20:33;;;;;;;7.03;5.53;;;;;;;5.36;98.75;97408.50;5012252;28;20254;-75
2020/12/21 04:22:59;;;;;;;6.33;5.27;;;;;;;5.36;98.84;97415.50;5013501;28;20539;-75
2020/12/21 04:25:25;;;;;;;7.53;5.70;;;;;;;5.40;98.21;97409.78;5012471;28;20203;-75
2020/12/21 04:27:51;;;;;;;6.73;5.57;;;;;;;5.40;98.34;97409.78;5011757;28;20191;-75
2020/12/21 04:30:16;;;;;;;7.50;5.30;;;;;;;5.49;98.35;97404.50;5012776;28;20195;-75
2020/12/21 04:32:42;;;;;;;7.67;6.67;;;;;;;5.58;96.91;97409.41;5000934;28;20706;-75
2020/12/21 04:35:07;;;;;;;9.37;7.07;;;;;;;5.48;97.91;97403.69;5012951;28;20237;-75
2020/12/21 04:37:33;;;;;;;7.70;6.83;;;;;;;5.39;98.13;97402.16;5010973;28;20175;-75
2020/12/21 04:39:59;;;;;;;8.23;7.10;;;;;;;5.44;98.20;97413.66;5013142;28;20231;-74
2020/12/21 04:42:24;;;;;;;9.87;7.20;;;;;;;5.51;97.72;97400.75;5012647;28;20254;-75
2020/12/21 04:44:51;;;;;;;8.90;7.10;;;;;;;5.52;97.79;97396.34;5011652;28;20183;-75
2020/12/21 04:47:17;;;;;;;7.40;6.60;;;;;;;5.61;96.89;97390.88;5012579;28;20279;-75
2020/12/21 04:49:44;;;;;;;7.53;6.60;;;;;;;5.61;97.32;97383.06;5011560;28;20179;-74
2020/12/21 04:52:11;;;;;;;8.63;7.20;;;;;;;5.61;97.33;97377.06;5000021;28;20206;-75
2020/12/21 04:54:36;;;;;;;8.67;7.30;;;;;;;5.81;95.86;97365.91;5012152;28;20195;-75
2020/12/21 04:57:02;;;;;;;8.40;6.97;;;;;;;5.76;96.53;97376.06;5012510;28;20233;-76
2020/12/21 04:59:27;;;;;;;9.07;6.43;;;;;;;5.71;96.70;97373.19;5011597;28;20193;-76
2020/12/21 05:01:55;;;;;;;7.83;6.67;;;;;;;5.83;95.86;97378.75;5012320;28;20188;-76
2020/12/21 05:04:21;;;;;;;8.30;7.50;;;;;;;5.80;95.93;97387.69;5012607;28;20196;-75
2020/12/21 05:06:54;;;;;;;9.93;7.50;;;;;;;5.75;95.70;97382.25;5011130;28;20228;-75
2020/12/21 05:09:24;;;;;;;9.53;7.63;;;;;;;5.55;96.65;97380.38;5012395;28;20192;-75
2020/12/21 05:12:02;;;;;;;9.67;8.20;;;;;;;5.43;97.41;97373.03;5011092;28;20749;-76
2020/12/21 05:14:36;;;;;;;10.00;8.53;;;;;;;5.52;97.05;97381.53;5011957;28;20233;-76
2020/12/21 05:17:16;;;;;;;10.27;8.30;;;;;;;5.44;97.35;97376.44;5011453;28;20171;-75
2020/12/21 05:19:43;;;;;;;12.67;8.97;;;;;;;5.51;96.40;97376.53;5019513;28;20648;-76
2020/12/21 05:22:15;;;;;;;9.63;8.63;;;;;;;5.33;97.19;97375.09;5011048;28;20262;-76
2020/12/21 05:24:42;;;;;;;9.77;8.67;;;;;;;5.40;97.79;97383.00;5009122;28;20222;-76
2020/12/21 05:27:13;;;;;;;10.40;8.10;;;;;;;5.32;97.69;97377.88;5010573;28;20192;-77
2020/12/21 05:29:38;;;;;;;9.57;8.57;;;;;;;5.38;97.56;97384.94;4998645;28;20183;-76
2020/12/21 05:32:03;;;;;;;8.37;7.57;;;;;;;5.38;97.19;97374.56;5011936;28;20199;-77
2020/12/21 05:34:29;;;;;;;8.13;6.60;;;;;;;5.28;97.91;97369.63;5011041;28;20191;-77
2020/12/21 05:36:55;;;;;;;7.77;6.80;;;;;;;5.51;96.64;97379.94;5011250;28;20198;-76
2020/12/21 05:39:20;;;;;;;7.73;6.93;;;;;;;5.43;97.01;97386.03;5011989;28;20191;-76
2020/12/21 05:41:46;;;;;;;8.33;7.43;;;;;;;5.21;97.37;97384.31;5010829;28;20288;-76
2020/12/21 05:44:11;;;;;;;8.13;7.30;;;;;;;5.17;97.37;97384.84;5012074;28;20183;-76
2020/12/21 05:46:37;;;;;;;7.80;7.00;;;;;;;5.23;97.78;97382.34;5010849;28;20176;-76
2020/12/21 05:49:03;;;;;;;7.27;6.57;;;;;;;5.22;97.34;97385.13;5010826;28;20245;-75
2020/12/21 05:51:39;;;;;;;7.17;6.30;;;;;;;5.27;97.83;97388.81;5011429;28;20241;-76
2020/12/21 05:54:06;;;;;;;7.00;6.30;;;;;;;5.22;97.79;97385.94;4997908;28;20561;-76
2020/12/21 05:56:33;;;;;;;7.40;6.57;;;;;;;5.39;97.56;97383.97;5011953;28;20199;-77
2020/12/21 05:59:00;;;;;;;6.47;5.87;;;;;;;5.32;97.40;97388.25;5011148;28;20269;-76
2020/12/21 06:01:26;;;;;;;6.73;6.10;;;;;;;5.38;97.39;97390.97;5010632;28;20275;-76
2020/12/21 06:03:53;;;;;;;7.50;6.70;;;;;;;5.20;98.07;97400.88;5010794;28;20927;-77
2020/12/21 06:06:24;;;;;;;7.10;6.40;;;;;;;5.38;97.83;97405.75;5011185;28;20182;-75
2020/12/21 06:08:52;;;;;;;9.20;6.63;;;;;;;5.41;97.58;97410.56;5011185;28;20184;-74
2020/12/21 06:11:19;;;;;;;8.03;7.27;;;;;;;5.21;98.41;97412.91;5011398;28;20240;-74
2020/12/21 06:13:50;;;;;;;8.03;7.23;;;;;;;5.25;98.38;97411.56;5010940;28;20195;-74
2020/12/21 06:16:18;;;;;;;8.33;7.53;;;;;;;5.19;98.68;97407.06;5011455;28;20182;-76
2020/12/21 06:19:01;;;;;;;7.20;6.50;;;;;;;5.12;98.65;97415.75;5002825;28;20184;-76
2020/12/21 06:21:28;;;;;;;7.90;6.30;;;;;;;5.34;98.84;97409.69;5002575;28;20176;-75
2020/12/21 06:23:54;;;;;;;6.73;5.97;;;;;;;5.23;100.00;97405.75;5000570;28;20184;-74
2020/12/21 06:26:30;;;;;;;6.63;5.93;;;;;;;5.37;98.76;97406.72;4984263;28;20171;-74
2020/12/21 06:29:16;;;;;;;6.17;5.57;;;;;;;5.36;98.50;97395.53;5011088;28;20233;-75
2020/12/21 06:31:51;;;;;;;8.43;5.33;;;;;;;5.44;97.72;97392.03;5000213;28;20218;-76
2020/12/21 06:34:37;;;;;;;7.37;6.00;;;;;;;5.42;97.28;97402.59;5015119;28;20186;-75
2020/12/21 06:37:08;;;;;;;6.00;5.40;;;;;;;5.37;97.05;97402.34;5015216;28;20636;-77
2020/12/21 06:39:35;;;;;;;6.20;5.60;;;;;;;5.21;97.66;97405.09;5012962;28;20206;-76
2020/12/21 06:42:11;;;;;;;6.07;5.47;;;;;;;5.28;97.26;97400.81;5014846;28;20397;-76
2020/12/21 06:44:39;;;;;;;6.07;4.80;;;;;;;5.34;97.02;97396.69;5005033;28;20195;-78
2020/12/21 06:47:06;;;;;;;6.67;5.50;;;;;;;5.41;96.17;97394.97;5013571;28;20179;-77
2020/12/21 06:49:32;;;;;;;5.60;5.00;;;;;;;5.31;97.53;97387.44;5013809;28;20666;-76
2020/12/21 06:51:57;;;;;;;6.10;5.50;;;;;;;5.30;96.98;97385.03;5014329;28;20207;-77
2020/12/21 06:54:23;;;;;;;6.03;5.43;;;;;;;5.18;97.23;97386.47;5015183;28;20179;-78
2020/12/21 06:56:50;;;;;;;6.37;5.77;;;;;;;5.28;97.11;97387.81;5003992;28;20214;-76
2020/12/21 06:59:16;;;;;;;6.57;5.97;;;;;;;5.09;97.65;97388.31;5014896;28;20194;-76
2020/12/21 07:01:44;;;;;;;5.83;5.30;;;;;;;5.22;97.22;97390.31;5012450;28;20694;-76
2020/12/21 07:04:14;;;;;;;6.50;5.90;;;;;;;5.15;97.87;97384.22;5014718;28;20198;-78
2020/12/21 07:06:41;;;;;;;6.00;5.40;;;;;;;5.15;97.66;97379.03;5013559;28;20199;-76
2020/12/21 07:09:07;;;;;;;5.43;4.97;;;;;;;5.21;96.68;97383.50;5014214;28;20187;-77
2020/12/21 07:11:33;;;;;;;6.33;5.43;;;;;;;5.15;96.47;97379.81;5014014;28;20760;-73
2020/12/21 07:13:59;;;;;;;5.80;5.10;;;;;;;5.13;96.76;97375.78;5014430;28;20659;-74
2020/12/21 07:16:25;;;;;;;6.10;5.50;;;;;;;5.23;95.96;97365.97;5012499;28;20240;-77
2020/12/21 07:18:51;;;;;;;6.63;5.77;;;;;;;4.91;96.54;97364.47;5010056;28;20187;-76
2020/12/21 07:21:17;;;;;;;7.83;6.43;;;;;;;5.21;94.38;97350.53;5004065;28;20180;-76
2020/12/21 07:23:44;;;;;;;7.43;6.27;;;;;;;5.12;94.50;97354.22;5008760;28;20187;-76
2020/12/21 07:26:14;;;;;;;8.33;6.50;;;;;;;4.98;95.46;97344.59;5012888;28;20183;-78
2020/12/21 07:28:40;;;;;;;8.63;6.90;;;;;;;5.04;94.45;97333.50;5013123;28;20180;-72
2020/12/21 07:31:08;;;;;;;7.57;6.53;;;;;;;5.06;94.56;97335.94;5013343;28;20175;-76
2020/12/21 07:33:35;;;;;;;7.10;6.40;;;;;;;5.05;93.31;97342.91;5013492;28;20239;-74
2020/12/21 07:36:02;;;;;;;7.60;6.67;;;;;;;5.04;93.96;97346.50;5013406;28;20179;-75
2020/12/21 07:38:28;;;;;;;7.53;6.47;;;;;;;4.92;94.86;97351.31;5015356;28;20716;-74
2020/12/21 07:40:55;;;;;;;8.00;6.40;;;;;;;4.87;94.69;97345.03;5010911;28;20175;-75
2020/12/21 07:43:29;;;;;;;7.87;6.17;;;;;;;4.93;94.42;97354.72;5013821;28;20171;-77
2020/12/21 07:46:01;;;;;;;7.33;6.10;;;;;;;4.92;94.59;97369.50;5012903;28;20593;-75
2020/12/21 07:48:28;;;;;;;9.50;6.63;;;;;;;4.97;94.30;97369.75;5014086;28;20190;-74
2020/12/21 07:50:53;;;;;;;7.80;6.23;;;;;;;5.10;93.49;97371.75;5012537;28;20810;-74
2020/12/21 07:53:20;;;;;;;6.93;6.23;;;;;;;4.93;93.45;97367.69;5013780;28;20207;-78
2020/12/21 07:55:55;;;;;;;8.37;6.67;;;;;;;4.97;94.01;97371.56;5024469;28;20218;-73
2020/12/21 07:58:21;;;;;;;7.93;6.03;;;;;;;4.86;93.98;97362.41;5011435;28;20237;-74
2020/12/21 08:01:20;;;;;;;6.63;5.93;;;;;;;4.97;93.25;97369.75;5012880;28;20187;-74
2020/12/21 08:03:49;;;;;;;7.30;6.10;;;;;;;5.12;93.08;97361.19;4998703;28;20214;-74
2020/12/21 08:06:22;;;;;;;6.37;5.60;;;;;;;4.92;93.45;97364.28;5013330;28;20191;-74
2020/12/21 08:08:48;;;;;;;8.47;6.10;;;;;;;4.98;93.12;97360.19;5012283;28;20535;-72
2020/12/21 08:11:18;;;;;;;13.57;6.77;;;;;;;4.88;94.42;97355.25;5013381;28;20195;-75
2020/12/21 08:13:48;;;;;;;7.57;5.90;;;;;;;4.92;94.43;97353.91;5012359;28;20351;-75
2020/12/21 08:16:14;;;;;;;6.03;5.43;;;;;;;4.89;94.44;97356.88;5013093;28;20586;-75
2020/12/21 08:18:39;;;;;;;7.63;6.27;;;;;;;5.02;93.95;97353.63;5016802;28;20183;-76
2020/12/21 08:21:05;;;;;;;6.83;6.13;;;;;;;5.13;92.97;97357.59;5012549;28;20244;-75
2020/12/21 08:23:32;;;;;;;7.07;5.93;;;;;;;5.15;92.40;97366.84;5013341;28;20586;-79
2020/12/21 08:25:58;;;;;;;6.67;5.97;;;;;;;5.15;93.05;97366.84;5005989;28;20188;-74
2020/12/21 08:28:28;;;;;;;5.97;5.37;;;;;;;5.26;92.10;97363.00;5006131;28;20214;-75
2020/12/21 08:31:10;;;;;;;6.20;5.27;;;;;;;5.38;91.99;97357.16;5008777;28;20221;-75
2020/12/21 08:33:36;;;;;;;6.70;4.77;;;;;;;5.42;91.22;97361.03;5012598;28;20191;-74
2020/12/21 08:36:18;;;;;;;6.43;4.83;;;;;;;5.48;91.73;97367.28;5012784;28;20190;-80
2020/12/21 08:38:44;;;;;;;9.30;5.07;;;;;;;5.53;91.70;97367.56;5011682;28;20679;-77
2020/12/21 08:41:10;;;;;;;7.33;4.93;;;;;;;5.61;92.11;97377.06;4995136;28;20223;-78
2020/12/21 08:43:35;;;;;;;6.90;5.40;;;;;;;5.77;91.25;97369.88;5012002;28;20198;-73
2020/12/21 08:46:05;;;;;;;7.17;5.63;;;;;;;5.83;90.35;97371.75;5011393;28;20183;-79
2020/12/21 08:48:31;;;;;;;6.87;5.50;;;;;;;5.85;90.50;97381.97;5012647;28;20182;-77
2020/12/21 08:50:56;;;;;;;8.23;6.80;;;;;;;5.98;89.50;97379.53;5010424;28;21027;-76
2020/12/21 08:53:22;;;;;;;7.00;5.73;;;;;;;5.85;90.28;97381.97;5012809;28;20682;-75
2020/12/21 08:55:47;;;;;;;5.00;4.50;;;;;;;5.96;90.31;97389.34;5009913;28;20275;-72
2020/12/21 08:58:12;;;;;;;5.40;4.90;;;;;;;6.07;89.81;97385.47;5012744;28;20274;-74
2020/12/21 09:00:38;;;;;;;5.50;4.63;;;;;;;6.18;89.34;97387.59;5012034;28;20270;-72
2020/12/21 09:03:03;;;;;;;4.67;4.27;;;;;;;6.28;88.55;97390.69;5012556;28;20274;-74
2020/12/21 09:05:29;;;;;;;5.27;4.50;;;;;;;6.27;88.46;97394.28;5012451;28;20255;-74
2020/12/21 09:07:54;;;;;;;5.87;4.53;;;;;;;6.37;87.86;97389.56;5011294;28;20294;-74
2020/12/21 09:10:20;;;;;;;5.63;4.47;;;;;;;6.52;86.84;97389.53;5012131;28;20644;-73
2020/12/21 09:12:45;;;;;;;4.87;4.37;;;;;;;6.29;89.10;97387.09;5013701;28;20624;-74
2020/12/21 09:15:10;;;;;;;5.67;4.53;;;;;;;6.45;87.67;97392.06;5012141;28;20607;-75
2020/12/21 09:17:37;;;;;;;5.97;4.77;;;;;;;6.52;87.81;97403.34;5010887;28;20234;-72
2020/12/21 09:20:03;;;;;;;5.47;4.13;;;;;;;6.71;86.85;97396.72;5011498;28;20187;-74
2020/12/21 09:22:28;;;;;;;4.63;4.10;;;;;;;6.56;86.80;97395.97;5006608;28;20612;-75
2020/12/21 09:24:54;;;;;;;5.43;4.40;;;;;;;6.67;86.45;97398.91;5010346;28;20195;-73
2020/12/21 09:27:19;;;;;;;4.33;3.77;;;;;;;6.55;86.95;97384.75;5011088;28;20245;-76
2020/12/21 09:29:45;;;;;;;4.93;4.30;;;;;;;6.64;86.96;97385.41;5011524;28;20185;-74
2020/12/21 09:32:10;;;;;;;5.00;4.50;;;;;;;6.69;86.42;97386.47;5011942;28;20286;-74
2020/12/21 09:34:36;;;;;;;6.87;3.93;;;;;;;6.74;85.98;97382.53;5011627;28;20640;-74
2020/12/21 09:37:02;;;;;;;6.10;4.57;;;;;;;6.71;86.21;97378.47;5011933;28;20182;-74
2020/12/21 09:39:27;;;;;;;6.00;4.10;;;;;;;6.81;85.99;97389.38;5012155;28;20702;-74
2020/12/21 09:41:54;;;;;;;7.43;4.43;;;;;;;6.99;85.25;97376.72;5010944;28;20231;-73
2020/12/21 09:44:20;;;;;;;5.53;4.53;;;;;;;6.89;86.29;97373.63;5012085;28;20175;-75
2020/12/21 09:46:45;;;;;;;5.60;5.00;;;;;;;6.97;86.54;97370.88;5017920;28;20269;-74
2020/12/21 09:49:11;;;;;;;6.13;4.53;;;;;;;6.91;85.33;97378.66;5011671;28;20187;-75
2020/12/21 09:51:36;;;;;;;6.10;5.27;;;;;;;7.02;85.04;97373.72;5011187;28;20182;-74
2020/12/21 09:54:02;;;;;;;5.73;4.90;;;;;;;6.82;85.82;97362.34;5011692;28;20687;-74
2020/12/21 09:56:27;;;;;;;5.60;4.97;;;;;;;6.93;85.46;97366.22;5011405;28;20229;-74
2020/12/21 09:58:52;;;;;;;7.00;4.63;;;;;;;7.13;84.64;97369.00;5010805;28;20179;-75
2020/12/21 10:01:18;;;;;;;5.30;4.17;;;;;;;7.04;84.86;97368.31;5011496;28;20625;-75
2020/12/21 10:03:43;;;;;;;4.80;4.30;;;;;;;7.06;84.74;97364.53;5011222;28;20214;-75
2020/12/21 10:06:10;;;;;;;5.20;4.60;;;;;;;7.22;83.89;97370.44;5011858;28;20183;-75
2020/12/21 10:08:37;;;;;;;5.80;4.50;;;;;;;7.20;83.89;97362.00;5011899;28;20179;-72
2020/12/21 10:11:03;;;;;;;5.17;4.17;;;;;;;7.12;84.32;97359.56;5012636;28;20214;-75
2020/12/21 10:13:30;;;;;;;4.97;4.17;;;;;;;7.34;83.46;97351.47;5010463;28;20210;-75
2020/12/21 10:15:55;;;;;;;5.13;4.23;;;;;;;7.37;82.98;97345.88;5010478;28;20172;-75
2020/12/21 10:18:21;;;;;;;7.77;4.20;;;;;;;7.44;82.63;97351.13;5011219;28;20195;-74
2020/12/21 10:20:46;;;;;;;5.27;4.23;;;;;;;7.66;81.79;97344.00;5010968;28;20658;-74
2020/12/21 10:23:14;;;;;;;5.03;4.10;;;;;;;7.66;81.79;97339.59;5011757;28;20294;-75
2020/12/21 10:25:39;;;;;;;7.73;4.47;;;;;;;7.68;81.97;97336.81;5010935;28;20266;-73
2020/12/21 10:28:04;;;;;;;5.67;4.73;;;;;;;7.62;81.94;97333.16;5008943;28;20274;-75
2020/12/21 10:30:30;;;;;;;6.73;4.87;;;;;;;7.66;81.70;97330.97;5002640;28;20230;-74
2020/12/21 10:32:55;;;;;;;6.37;4.20;;;;;;;7.63;81.96;97324.34;4999962;28;20207;-75
2020/12/21 10:35:21;;;;;;;6.50;4.50;;;;;;;7.69;81.99;97322.75;5011534;28;20175;-75
2020/12/21 10:37:46;;;;;;;4.40;3.67;;;;;;;7.75;81.79;97319.34;5011092;28;20275;-75
2020/12/21 10:40:11;;;;;;;4.27;3.93;;;;;;;7.78;81.32;97319.78;5011431;28;20206;-75
2020/12/21 10:42:37;;;;;;;4.20;3.80;;;;;;;7.92;80.02;97323.22;5011346;28;20571;-69
2020/12/21 10:45:03;;;;;;;5.40;3.77;;;;;;;7.91;80.05;97317.19;5011228;28;20572;-74
2020/12/21 10:47:30;;;;;;;5.10;3.93;;;;;;;7.72;81.39;97306.72;5011207;28;20250;-75
2020/12/21 10:49:55;;;;;;;5.13;3.80;;;;;;;7.78;81.08;97298.91;5010832;28;20266;-75
2020/12/21 10:52:21;;;;;;;4.83;4.27;;;;;;;7.71;81.19;97307.69;5011250;28;20309;-75
2020/12/21 10:54:46;;;;;;;5.33;4.63;;;;;;;7.92;80.86;97302.34;5010122;28;20654;-75
2020/12/21 10:57:11;;;;;;;5.30;4.03;;;;;;;7.76;80.83;97300.09;5011015;28;20624;-75
2020/12/21 10:59:37;;;;;;;5.93;4.00;;;;;;;7.91;79.43;97305.97;5011076;28;20175;-75
2020/12/21 11:02:03;;;;;;;5.07;4.10;;;;;;;7.93;79.53;97301.34;5012248;28;20578;-75
2020/12/21 11:04:28;;;;;;;4.60;4.20;;;;;;;7.94;79.46;97302.97;5011826;28;20175;-76
2020/12/21 11:06:55;;;;;;;4.90;4.40;;;;;;;7.60;80.58;97292.59;5010521;28;20184;-76
2020/12/21 11:09:21;;;;;;;4.67;4.00;;;;;;;7.83;79.49;97298.31;5011237;28;20194;-73
2020/12/21 11:11:46;;;;;;;7.60;4.10;;;;;;;7.76;80.11;97285.25;5010551;28;20180;-76
2020/12/21 11:14:11;;;;;;;4.60;3.90;;;;;;;7.72;80.60;97281.44;5012417;28;20183;-74
2020/12/21 11:16:37;;;;;;;4.53;3.70;;;;;;;7.83;80.11;97280.06;5009784;28;20185;-74
2020/12/21 11:19:02;;;;;;;5.93;3.87;;;;;;;7.97;79.45;97292.13;5014376;28;20218;-75
2020/12/21 11:21:34;;;;;;;4.57;3.97;;;;;;;7.83;80.13;97287.88;5014650;28;20189;-75
2020/12/21 11:24:00;;;;;;;4.87;3.40;;;;;;;8.05;79.22;97294.56;5013943;28;20175;-75
2020/12/21 11:26:25;;;;;;;4.43;3.70;;;;;;;8.04;79.09;97286.91;5013446;28;20275;-74
2020/12/21 11:28:51;;;;;;;7.87;4.23;;;;;;;8.00;79.55;97285.72;5013440;28;20210;-75
2020/12/21 11:31:16;;;;;;;4.43;3.70;;;;;;;8.12;79.26;97286.75;5014113;28;20248;-74
2020/12/21 11:33:43;;;;;;;5.40;3.63;;;;;;;8.21;78.99;97291.56;5013521;28;20769;-73
2020/12/21 11:36:10;;;;;;;3.63;3.27;;;;;;;8.37;77.35;97289.59;5009644;28;20187;-73
2020/12/21 11:38:35;;;;;;;3.90;3.10;;;;;;;8.30;77.82;97293.00;5014316;28;20191;-73
2020/12/21 11:41:01;;;;;;;5.57;3.10;;;;;;;8.12;79.35;97294.56;5013711;28;20282;-72